• Join FlightAware (Why Join?)
  • Login
  • US Flag 
09:24PM EDT


 

Airport Tracker/Info


-or-


 

Live Flight TrackerFlight Track Log ✈ SWA1143 ✈ 30-Apr-2013 ✈ KMCI - KIND

Flight Track Log - Related Links

Times and Time Zones

All times are in EDT time to prevent confusion due to time zone crossing. See the SWA1143 flight status page for this flight to view local times or setup timezone preferences in your user account.

Time Position Orientation Groundspeed Altitude Reporting Facility
EDT Latitude Longitude Course Direction KTS MPH feet Rate Location/Type
10:23PM 39.2833 -94.7000 86° East 155 178 1,600  Level Kansas City TRACON
10:25PM 39.2867 -94.6344 86° East 186 214 4,200 2,640 Climbing Kansas City Center
10:26PM 39.3014 -94.5333 79° East 270 311 7,300 3,240 Climbing Kansas City Center
10:27PM 39.3167 -94.4333 79° East 293 337 10,800 3,660 Climbing Kansas City Center
10:28PM 39.3364 -94.2967 79° East 349 402 14,900 3,960 Climbing Kansas City Center
10:29PM 39.3550 -94.1731 79° East 365 420 19,000 3,660 Climbing Kansas City Center
10:30PM 39.3736 -94.0433 79° East 383 441 22,400 3,360 Climbing Kansas City Center
10:31PM 39.3964 -93.8817 80° East 408 470 26,000 3,120 Climbing Kansas City Center
10:32PM 39.4142 -93.7214 82° East 424 488 28,900 2,580 Climbing Kansas City Center
10:33PM 39.4350 -93.5625 80° East 442 509 31,300 2,340 Climbing Kansas City Center
10:34PM 39.4539 -93.4011 81° East 453 521 33,700 2,400 Climbing Kansas City Center
10:35PM 39.4644 -93.2425 85° East 451 519 36,300 2,340 Climbing Kansas City Center
10:36PM 39.4764 -93.0875 84° East 442 509 38,500 1,800 Climbing Kansas City Center
10:37PM 39.4889 -92.9308 84° East 442 509 40,000 720 Climbing Kansas City Center
10:38PM 39.5003 -92.7767 84° East 440 506 40,000 240 Level Kansas City Center
10:39PM 39.5150 -92.5939 84° East 434 499 40,500 480 Climbing Kansas City Center
10:40PM 39.5272 -92.4342 84° East 444 511 41,000 -120 Climbing Kansas City Center
10:41PM 39.5378 -92.2719 85° East 453 521 40,300 -840 Descending Kansas City Center
10:42PM 39.5486 -92.1172 85° East 445 512 39,400 -660 Descending Kansas City Center
10:43PM 39.5597 -91.9619 85° East 441 507 39,000 -240 Descending Kansas City Center
10:44PM 39.5711 -91.8047 85° East 441 507 39,000  Level Kansas City Center
10:45PM 39.5819 -91.6486 85° East 442 509 39,000  Level Kansas City Center
10:46PM 39.5936 -91.4614 85° East 441 507 39,000  Level Kansas City Center
10:47PM 39.6042 -91.3047 85° East 441 507 39,000  Level Kansas City Center
10:48PM 39.6144 -91.1392 85° East 441 507 39,000  Level Kansas City Center
10:49PM 39.6244 -90.9778 85° East 446 513 39,000  Level Kansas City Center
10:50PM 39.6347 -90.8192 85° East 443 510 39,000  Level Kansas City Center
10:51PM 39.6439 -90.6603 86° East 442 509 39,000 -780 Level Kansas City Center
10:53PM 39.6614 -90.3414 86° East 443 510 36,700 -1,260 Descending Kansas City Center
10:54PM 39.6711 -90.1789 86° East 448 516 35,300 -840 Descending Kansas City Center
10:55PM 39.6794 -90.0139 86° East 454 522 35,000 -180 Descending Kansas City Center
10:56PM 39.6881 -89.8506 86° East 454 522 35,000  Level Kansas City Center
10:57PM 39.6956 -89.6886 87° East 451 519 35,000  Level Kansas City Center
10:58PM 39.7036 -89.5272 86° East 451 519 35,000  Level Kansas City Center
10:59PM 39.7117 -89.3606 86° East 446 513 35,000  Level Kansas City Center
11:00PM 39.7192 -89.1989 86° East 447 514 35,000  Level Kansas City Center
11:01PM 39.7267 -89.0386 86° East 448 516 35,000  Level Kansas City Center
11:02PM 39.7336 -88.8783 87° East 447 514 35,000 -1,140 Level Kansas City Center
11:03PM 39.7400 -88.7172 87° East 447 514 32,800 -2,760 Descending Kansas City Center
11:04PM 39.7489 -88.5278 86° East 440 506 29,400 -3,000 Descending Kansas City Center
11:05PM 39.7564 -88.3744 86° East 431 496 26,800 -2,580 Descending Kansas City Center
11:06PM 39.7622 -88.2300 87° East 414 476 24,300 -1,380 Descending Kansas City Center
11:07PM 39.7669 -88.0964 87° East 402 463 24,000 -240 Descending Kansas City Center
11:08PM 39.7667 -88.0475 90° East 396 456 24,000  Level Indianapolis Center
11:09PM 39.7719 -87.9017 87° East 401 461 24,000  Level Indianapolis Center
11:10PM 39.7764 -87.7553 88° East 403 464 24,000 -660 Level Indianapolis Center
11:11PM 39.7806 -87.6092 88° East 403 464 22,700 -1,860 Descending Indianapolis Center
11:12PM 39.7858 -87.4706 87° East 387 445 20,300 -2,400 Descending Indianapolis Center
11:13PM 39.7906 -87.3386 87° East 369 425 17,900 -2,400 Descending Indianapolis Center
11:14PM 39.7931 -87.2075 89° East 363 418 15,500 -2,400 Descending Indianapolis Center
11:15PM 39.7972 -87.0819 87° East 350 403 13,100 -1,740 Descending Indianapolis Center
11:16PM 39.8072 -86.9422 85° East 334 384 12,000 -600 Descending Indianapolis Center
11:17PM 39.8189 -86.8250 83° East 327 376 12,000 -300 Level Indianapolis Center
11:18PM 39.8306 -86.7061 83° East 328 377 11,500 -960 Descending Indianapolis Center
11:19PM 39.8417 -86.5908 83° East 324 373 10,100 -1,560 Descending Indianapolis Center
11:20PM 39.8508 -86.4861 83° East 298 343 8,400 -1,680 Descending Indianapolis Center
11:21PM 39.8608 -86.3844 83° East 284 327 6,800 -1,620 Descending Indianapolis Center
11:21PM 39.8667 -86.3333 82° East 275 316 6,100 -1,740 Descending Indianapolis TRACON
11:23PM 39.8667 -86.2333 90° East 269 310 4,200 -1,560 Descending Indianapolis TRACON
11:24PM 39.8167 -86.2000 153° Southeast 224 258 2,900 -1,080 Descending Indianapolis TRACON
11:25PM 39.7833 -86.2333 218° Southwest 165 190 2,100 -780 Descending Indianapolis TRACON
11:26PM 39.7500 -86.2667 218° Southwest 121 139 1,400 -600 Descending Indianapolis TRACON
11:27PM 39.7175 -86.3061 223° Southwest 129 148 700 -480 Descending Indianapolis Center